createdAt,value
2017-09-12T00:00:15.519Z,73.1
2017-09-12T00:01:44.016Z,73
2017-09-12T00:02:42.811Z,73
2017-09-12T00:03:42.362Z,73
2017-09-12T00:04:41.536Z,73
2017-09-12T00:05:40.589Z,73.1
2017-09-12T00:06:39.882Z,73
2017-09-12T00:07:39.184Z,73
2017-09-12T00:08:38.361Z,73
2017-09-12T00:09:37.788Z,72.9
2017-09-12T00:10:36.712Z,72.9
2017-09-12T00:11:36.139Z,72.9
2017-09-12T00:12:35.194Z,72.9
2017-09-12T00:13:34.371Z,72.9
2017-09-12T00:14:33.839Z,72.8
2017-09-12T00:15:32.636Z,72.8
2017-09-12T00:16:31.937Z,72.7
2017-09-12T00:17:31.358Z,72.8
2017-09-12T00:18:30.664Z,72.7
2017-09-12T00:19:29.466Z,72.7
2017-09-12T00:20:29.277Z,72.7
2017-09-12T00:21:28.078Z,72.7
2017-09-12T00:22:27.254Z,72.7
2017-09-12T00:24:26.069Z,72.5
2017-09-12T00:25:24.736Z,72.5
2017-09-12T00:26:24.408Z,72.3
2017-09-12T00:27:23.837Z,72.2
2017-09-12T00:28:22.767Z,72.3
2017-09-12T00:29:21.938Z,72.3
2017-09-12T00:30:21.243Z,72.3
2017-09-12T00:30:51.993Z,72.3
2017-09-12T00:31:22.605Z,72.4
2017-09-12T00:31:53.092Z,72.4
2017-09-12T00:33:19.079Z,72.4
2017-09-12T00:34:18.252Z,72.4
2017-09-12T00:35:17.305Z,72.4
2017-09-12T00:36:16.609Z,72.3
2017-09-12T00:37:15.911Z,72.4
2017-09-12T00:38:15.338Z,72.4
2017-09-12T00:39:14.269Z,72.5
2017-09-12T00:40:13.713Z,72.5
2017-09-12T00:41:12.643Z,72.7
2017-09-12T00:42:12.065Z,72.7
2017-09-12T00:43:11.240Z,72.9
2017-09-12T00:44:09.914Z,72.9
2017-09-12T00:45:09.216Z,72.9
2017-09-12T00:47:07.648Z,73
2017-09-12T00:48:06.948Z,73
2017-09-12T00:49:06.248Z,73.1
2017-09-12T00:50:05.680Z,73.1
2017-09-12T00:51:04.856Z,73.3
2017-09-12T00:52:03.782Z,73.3
2017-09-12T00:53:03.335Z,73.4
2017-09-12T00:54:02.507Z,73.5
2017-09-12T00:55:01.564Z,73.5
2017-09-12T00:56:00.773Z,73.5
2017-09-12T00:57:00.325Z,73.5
2017-09-12T00:57:59.629Z,73.6
2017-09-12T00:58:58.549Z,73.6
2017-09-12T00:59:57.852Z,73.7
2017-09-12T01:00:57.279Z,73.6
2017-09-12T01:01:55.947Z,73.6
2017-09-12T01:02:55.114Z,73.7
2017-09-12T01:03:54.411Z,73.7
2017-09-12T01:04:53.843Z,73.7
2017-09-12T01:05:53.015Z,73.7
2017-09-12T01:06:52.434Z,73.8
2017-09-12T01:07:51.105Z,73.7
2017-09-12T01:08:50.528Z,73.7
2017-09-12T01:09:49.865Z,73.7
2017-09-12T01:10:49.296Z,73.8
2017-09-12T01:11:48.352Z,73.8
2017-09-12T01:12:47.653Z,73.9
2017-09-12T01:13:46.954Z,73.9
2017-09-12T01:14:17.070Z,73.9
2017-09-12T01:14:47.934Z,73.9
2017-09-12T01:15:18.297Z,73.9
2017-09-12T01:16:44.519Z,74
2017-09-12T01:17:43.443Z,74
2017-09-12T01:18:42.491Z,74
2017-09-12T01:19:42.050Z,74
2017-09-12T01:20:41.601Z,74
2017-09-12T01:21:40.406Z,74.1
2017-09-12T01:22:39.579Z,74.1
2017-09-12T01:23:38.629Z,74
2017-09-12T01:24:09.245Z,74
2017-09-12T01:24:39.477Z,73.9
2017-09-12T01:25:10.095Z,73.9
2017-09-12T01:25:40.335Z,74
2017-09-12T01:26:36.488Z,74
2017-09-12T01:27:35.534Z,74
2017-09-12T01:28:34.832Z,74
2017-09-12T01:29:34.138Z,73.9
2017-09-12T01:30:33.315Z,74
2017-09-12T01:31:32.489Z,74
2017-09-12T01:32:31.664Z,74
2017-09-12T01:33:31.092Z,74
2017-09-12T01:34:30.150Z,73.9
2017-09-12T01:35:29.463Z,73.9
2017-09-12T01:36:28.645Z,73.8
2017-09-12T01:37:28.070Z,73.8
2017-09-12T01:38:26.865Z,73.8
2017-09-12T01:39:25.921Z,73.8
2017-09-12T01:40:25.352Z,73.9
2017-09-12T01:41:24.402Z,73.9
2017-09-12T01:42:23.833Z,73.9
2017-09-12T01:43:22.885Z,73.8
2017-09-12T01:44:21.932Z,73.9
2017-09-12T01:45:21.863Z,73.9
2017-09-12T01:46:20.535Z,73.9
2017-09-12T01:47:19.713Z,74
2017-09-12T01:48:19.140Z,74
2017-09-12T01:49:18.568Z,74
2017-09-12T01:50:17.871Z,74
2017-09-12T01:51:16.547Z,74
2017-09-12T01:52:16.100Z,74.1
2017-09-12T01:53:15.279Z,74.1
2017-09-12T01:54:14.329Z,74.1
2017-09-12T01:55:13.889Z,74.2
2017-09-12T01:56:12.688Z,74.3
2017-09-12T01:57:12.238Z,74.3
2017-09-12T01:58:11.038Z,74.4
2017-09-12T01:59:10.596Z,74.4
2017-09-12T02:00:09.642Z,74.3
2017-09-12T02:01:09.074Z,74.5
2017-09-12T02:02:07.868Z,74.4
2017-09-12T02:03:07.197Z,74.5
2017-09-12T02:04:06.497Z,74.5
2017-09-12T02:05:05.805Z,74.4
2017-09-12T02:06:04.977Z,74.4
2017-09-12T02:07:04.532Z,74.5
2017-09-12T02:08:03.589Z,74.4
2017-09-12T02:11:00.796Z,74.4
2017-09-12T02:12:00.481Z,74.4
2017-09-12T02:12:59.280Z,74.4
2017-09-12T02:13:58.579Z,74.4
2017-09-12T02:14:58.004Z,74.4
2017-09-12T02:15:57.183Z,74.4
2017-09-12T02:16:55.973Z,74.4
2017-09-12T02:17:55.274Z,74.4
2017-09-12T02:18:54.711Z,74.4
2017-09-12T02:20:53.022Z,74.2
2017-09-12T02:21:52.440Z,74.2
2017-09-12T02:22:51.620Z,74.2
2017-09-12T02:23:50.571Z,74.2
2017-09-12T02:24:49.868Z,74.1
2017-09-12T02:25:49.295Z,74.1
2017-09-12T02:26:48.592Z,74.1
2017-09-12T02:27:47.645Z,74.1
2017-09-12T02:28:46.697Z,74.1
2017-09-12T02:29:45.994Z,74.1
2017-09-12T02:30:45.055Z,74
2017-09-12T02:31:44.360Z,74
2017-09-12T02:32:43.796Z,73.9
2017-09-12T02:34:42.106Z,73.9
2017-09-12T02:35:40.783Z,73.9
2017-09-12T02:36:40.337Z,73.9
2017-09-12T02:37:39.522Z,73.9
2017-09-12T02:38:38.325Z,73.8
2017-09-12T02:39:37.624Z,73.8
2017-09-12T02:40:37.068Z,73.9
2017-09-12T02:41:36.122Z,73.9
2017-09-12T02:42:35.294Z,73.9
2017-09-12T02:43:34.988Z,73.9
2017-09-12T02:44:34.291Z,73.9
2017-09-12T02:45:33.464Z,73.9
2017-09-12T02:46:32.138Z,73.9
2017-09-12T02:47:31.316Z,73.9
2017-09-12T02:48:41.535Z,73.9
2017-09-12T02:49:29.505Z,73.9
2017-09-12T02:50:28.789Z,73.8
2017-09-12T02:51:28.084Z,73.7
2017-09-12T02:52:27.510Z,73.7
2017-09-12T02:53:26.797Z,73.8
2017-09-12T02:54:25.965Z,73.8
2017-09-12T02:55:25.263Z,73.8
2017-09-12T02:56:24.549Z,73.7
2017-09-12T02:57:23.458Z,73.8
2017-09-12T02:58:22.493Z,73.8
2017-09-12T02:59:21.783Z,73.8
2017-09-12T03:00:21.072Z,73.8
2017-09-12T03:01:20.233Z,73.8
2017-09-12T03:02:19.278Z,73.8
2017-09-12T03:03:18.694Z,73.7
2017-09-12T03:04:18.104Z,73.7
2017-09-12T03:05:16.771Z,73.7
2017-09-12T03:06:16.555Z,73.8
2017-09-12T03:07:15.217Z,73.8
2017-09-12T03:08:14.756Z,73.8
2017-09-12T03:09:14.421Z,73.8
2017-09-12T03:10:12.952Z,73.8
2017-09-12T03:11:12.373Z,73.9
2017-09-12T03:12:11.913Z,73.9
2017-09-12T03:13:10.826Z,73.9
2017-09-12T03:14:10.113Z,73.9
2017-09-12T03:15:09.271Z,73.9
2017-09-12T03:16:08.435Z,73.9
2017-09-12T03:17:07.741Z,73.9
2017-09-12T03:18:06.901Z,74
2017-09-12T03:19:06.192Z,74
2017-09-12T03:20:05.386Z,74
2017-09-12T03:21:04.675Z,74.1
2017-09-12T03:22:03.466Z,74.2
2017-09-12T03:23:02.759Z,74.2
2017-09-12T03:24:01.923Z,74.1
2017-09-12T03:26:00.353Z,74.1
2017-09-12T03:26:59.640Z,74
2017-09-12T03:28:58.054Z,74.1
2017-09-12T03:29:57.597Z,74.1
2017-09-12T03:30:56.514Z,74.1
2017-09-12T03:31:55.433Z,74.1
2017-09-12T03:32:54.851Z,74.1
2017-09-12T03:33:54.013Z,74.1
2017-09-12T03:34:53.184Z,74.1
2017-09-12T03:35:52.098Z,74.1
2017-09-12T03:37:50.898Z,74.1
2017-09-12T03:38:49.804Z,74.1
2017-09-12T03:39:20.284Z,74.1
2017-09-12T03:39:51.015Z,74.2
2017-09-12T03:40:48.539Z,74.2
2017-09-12T03:41:47.574Z,74.2
2017-09-12T03:42:46.861Z,74.2
2017-09-12T03:43:46.023Z,74.3
2017-09-12T03:44:45.441Z,74.2
2017-09-12T03:45:44.614Z,74.3
2017-09-12T03:46:43.401Z,74.3
2017-09-12T03:47:42.816Z,74.3
2017-09-12T03:48:41.728Z,74.2
2017-09-12T03:49:41.393Z,74.2
2017-09-12T03:50:40.052Z,74.2
2017-09-12T03:52:38.477Z,74.1
2017-09-12T03:53:38.268Z,74.1
2017-09-12T03:54:37.052Z,74.2
2017-09-12T03:55:36.471Z,74.2
2017-09-12T03:56:35.754Z,74.1
2017-09-12T03:57:34.664Z,74.2
2017-09-12T03:58:33.955Z,74.2
2017-09-12T03:59:33.245Z,74.2
2017-09-12T04:00:32.690Z,74.1
2017-09-12T04:01:31.223Z,74.2
2017-09-12T04:02:31.142Z,74.2
2017-09-12T04:03:29.928Z,74.2
2017-09-12T04:04:28.964Z,74.2
2017-09-12T04:05:28.382Z,74.3
2017-09-12T04:06:27.664Z,74.3
2017-09-12T04:07:26.832Z,74.3
2017-09-12T04:09:25.005Z,74.3
2017-09-12T04:10:24.314Z,74.4
2017-09-12T04:11:23.611Z,74.4
2017-09-12T04:12:22.554Z,74.4
2017-09-12T04:13:22.001Z,74.5
2017-09-12T04:14:20.788Z,74.4
2017-09-12T04:15:19.948Z,74.4
2017-09-12T04:16:19.110Z,74.4
2017-09-12T04:18:17.781Z,74.3
2017-09-12T04:19:17.071Z,74.4
2017-09-12T04:20:16.236Z,74.3
2017-09-12T04:21:15.524Z,74.3
2017-09-12T04:22:14.940Z,74.4
2017-09-12T04:24:12.993Z,74.3
2017-09-12T04:25:12.027Z,74.3
2017-09-12T04:26:11.574Z,74.2
2017-09-12T04:27:10.870Z,74.2
2017-09-12T04:28:10.032Z,74.3
2017-09-12T04:29:08.823Z,74.4
2017-09-12T04:30:07.982Z,74.3
2017-09-12T04:31:07.526Z,74.4
2017-09-12T04:32:06.687Z,74.3
2017-09-12T04:33:05.983Z,74.4
2017-09-12T04:34:05.018Z,74.3
2017-09-12T04:35:04.061Z,74.3
2017-09-12T04:36:03.349Z,74.3
2017-09-12T04:37:02.766Z,74.3
2017-09-12T04:38:01.928Z,74.2
2017-09-12T04:39:00.970Z,74.2
2017-09-12T04:40:00.512Z,74.2
2017-09-12T04:40:59.297Z,74.3
2017-09-12T04:41:58.842Z,74.2
2017-09-12T04:42:57.759Z,74.2
2017-09-12T04:43:57.425Z,74.2
2017-09-12T04:44:56.333Z,74.2
2017-09-12T04:45:55.620Z,74.2
2017-09-12T04:46:54.790Z,74.1
2017-09-12T04:47:53.579Z,74
2017-09-12T04:48:52.742Z,73.8
2017-09-12T04:49:52.160Z,73.8
2017-09-12T04:50:51.449Z,73.8
2017-09-12T04:51:50.986Z,73.8
2017-09-12T04:52:49.896Z,73.6
2017-09-12T04:53:49.059Z,73.7
2017-09-12T04:54:48.501Z,73.7
2017-09-12T04:55:47.538Z,73.7
2017-09-12T04:56:46.446Z,73.7
2017-09-12T04:57:45.981Z,73.7
2017-09-12T04:58:45.144Z,73.6
2017-09-12T04:59:44.563Z,73.5
2017-09-12T05:00:43.480Z,73.6
2017-09-12T05:01:42.899Z,73.5
2017-09-12T05:02:41.942Z,73.3
2017-09-12T05:03:40.859Z,73.3
2017-09-12T05:04:40.027Z,73.3
2017-09-12T05:05:39.325Z,73.5
2017-09-12T05:06:38.870Z,73.1
2017-09-12T05:07:37.527Z,72.9
2017-09-12T05:08:37.059Z,72.7
2017-09-12T05:09:36.475Z,72.5
2017-09-12T05:10:35.268Z,72.5
2017-09-12T05:11:34.606Z,72.5
2017-09-12T05:12:33.896Z,72.5
2017-09-12T05:13:33.074Z,72.5
2017-09-12T05:14:32.237Z,72.4
2017-09-12T05:15:31.018Z,72.4
2017-09-12T05:16:30.429Z,72.3
2017-09-12T05:17:29.720Z,72
2017-09-12T05:18:29.011Z,72
2017-09-12T05:19:28.426Z,72
2017-09-12T05:20:27.093Z,71.9
2017-09-12T05:21:26.508Z,71.9
2017-09-12T05:21:56.984Z,71.9
2017-09-12T05:22:27.714Z,71.9
2017-09-12T05:24:24.250Z,71
2017-09-12T05:25:23.660Z,70.9
2017-09-12T05:26:22.316Z,70.8
2017-09-12T05:27:22.109Z,70.1
2017-09-12T05:28:20.769Z,69.7
2017-09-12T05:29:20.178Z,69.7
2017-09-12T05:30:19.468Z,69.8
2017-09-12T05:31:18.884Z,69.8
2017-09-12T05:32:17.687Z,69.6
2017-09-12T05:33:16.977Z,69.2
2017-09-12T05:34:16.011Z,69.4
2017-09-12T05:36:14.563Z,69.4
2017-09-12T05:37:13.855Z,69.3
2017-09-12T05:38:12.891Z,69.1
2017-09-12T05:39:12.437Z,69.3
2017-09-12T05:40:11.348Z,69
2017-09-12T05:41:10.390Z,69
2017-09-12T05:42:10.055Z,69.1
2017-09-12T05:43:09.210Z,69.2
2017-09-12T05:44:08.508Z,69.1
2017-09-12T05:45:07.795Z,68.5
2017-09-12T05:46:06.590Z,68.1
2017-09-12T05:47:05.876Z,67.9
2017-09-12T05:47:36.352Z,67.9
2017-09-12T05:48:07.212Z,67.9
2017-09-12T05:50:03.501Z,67.2
2017-09-12T05:51:02.925Z,66.5
2017-09-12T05:52:01.957Z,65.9
2017-09-12T05:53:01.117Z,65.7
2017-09-12T05:54:00.404Z,65.5
2017-09-12T05:54:59.441Z,65.3
2017-09-12T05:55:58.860Z,65.4
2017-09-12T05:56:58.030Z,65.2
2017-09-12T05:57:57.574Z,64.8
2017-09-12T05:58:27.426Z,64.8
2017-09-12T05:58:58.032Z,64.8
2017-09-12T05:59:55.685Z,64.7
2017-09-12T06:00:54.974Z,65.1
2017-09-12T06:01:54.012Z,65.3
2017-09-12T06:02:53.311Z,65.9
2017-09-12T06:03:52.729Z,66
2017-09-12T06:04:51.639Z,66.1
2017-09-12T06:05:51.055Z,66.2
2017-09-12T06:06:50.223Z,66.3
2017-09-12T06:07:49.662Z,66.3
2017-09-12T06:08:48.418Z,66.2
2017-09-12T06:09:47.578Z,66.1
2017-09-12T06:10:46.989Z,66.1
2017-09-12T06:11:46.281Z,66
2017-09-12T06:12:45.575Z,66.1
2017-09-12T06:13:44.363Z,66.3
2017-09-12T06:14:44.028Z,66.3
2017-09-12T06:15:42.819Z,66.3
2017-09-12T06:16:41.989Z,66.3
2017-09-12T06:17:41.790Z,66.5
2017-09-12T06:18:40.451Z,66.6
2017-09-12T06:19:39.736Z,66.8
2017-09-12T06:20:39.033Z,66.6
2017-09-12T06:21:38.323Z,66.7
2017-09-12T06:22:37.496Z,66.9
2017-09-12T06:23:36.662Z,66.7
2017-09-12T06:24:36.073Z,66.7
2017-09-12T06:25:35.616Z,66.7
2017-09-12T06:26:34.282Z,66.7
2017-09-12T06:27:33.820Z,66.4
2017-09-12T06:28:32.855Z,66.4
2017-09-12T06:29:32.154Z,66.6
2017-09-12T06:30:31.710Z,66.6
2017-09-12T06:32:29.502Z,66.6
2017-09-12T06:33:28.919Z,66.5
2017-09-12T06:34:28.085Z,66.3
2017-09-12T06:35:27.250Z,65.9
2017-09-12T06:36:26.792Z,66
2017-09-12T06:37:25.839Z,65.7
2017-09-12T06:37:56.112Z,65.7
2017-09-12T06:38:26.334Z,65.6
2017-09-12T06:38:56.823Z,65.6
2017-09-12T06:39:27.172Z,65.6
2017-09-12T06:39:57.896Z,65.6
2017-09-12T06:41:22.728Z,65.4
2017-09-12T06:42:22.271Z,65.4
2017-09-12T06:43:21.185Z,65.3
2017-09-12T06:44:20.484Z,65.3
2017-09-12T06:45:19.788Z,65.3
2017-09-12T06:46:18.572Z,65.7
2017-09-12T06:47:17.732Z,65.6
2017-09-12T06:48:17.270Z,65.6
2017-09-12T06:49:16.810Z,65.8
2017-09-12T06:50:15.473Z,65.8
2017-09-12T06:51:15.140Z,65.6
2017-09-12T06:52:14.186Z,65.6
2017-09-12T06:54:12.874Z,65.7
2017-09-12T06:55:12.033Z,65.6
2017-09-12T06:56:11.077Z,65.7
2017-09-12T06:57:10.372Z,65.6
2017-09-12T06:58:09.909Z,65.4
2017-09-12T06:59:08.696Z,65.2
2017-09-12T07:00:07.732Z,65.3
2017-09-12T07:01:07.159Z,65.4
2017-09-12T07:02:06.574Z,65.4
2017-09-12T07:03:05.488Z,65.4
2017-09-12T07:05:04.287Z,65.4
2017-09-12T07:06:03.362Z,65.2
2017-09-12T07:07:02.525Z,64.9
2017-09-12T07:08:01.687Z,64.9
2017-09-12T07:09:00.981Z,64.5
2017-09-12T07:10:00.400Z,64.4
2017-09-12T07:10:59.564Z,63.2
2017-09-12T07:11:58.479Z,63
2017-09-12T07:12:57.896Z,62.6
2017-09-12T07:15:55.839Z,60.6
2017-09-12T07:16:54.882Z,60
2017-09-12T07:17:54.050Z,59.7
2017-09-12T07:18:52.964Z,59.4
2017-09-12T07:19:52.510Z,58.8
2017-09-12T07:20:51.923Z,58.8
2017-09-12T07:21:51.094Z,58.6
2017-09-12T07:22:50.504Z,58.6
2017-09-12T07:23:49.421Z,59
2017-09-12T07:24:48.834Z,59.2
2017-09-12T07:25:47.622Z,58.8
2017-09-12T07:26:46.920Z,58.2
2017-09-12T07:27:46.465Z,57.6
2017-09-12T07:28:45.507Z,57.1
2017-09-12T07:29:44.920Z,57.1
2017-09-12T07:30:44.079Z,57
2017-09-12T07:31:43.253Z,56.8
2017-09-12T07:32:42.670Z,57.3
2017-09-12T07:33:41.456Z,57.1
2017-09-12T07:34:40.997Z,57.1
2017-09-12T07:35:40.158Z,56.8
2017-09-12T07:37:38.450Z,56.2
2017-09-12T07:38:37.608Z,56.2
2017-09-12T07:39:36.897Z,55.8
2017-09-12T07:40:36.187Z,55.5
2017-09-12T07:41:35.609Z,55.7
2017-09-12T07:42:34.895Z,56
2017-09-12T07:43:34.307Z,56.2
2017-09-12T07:44:33.471Z,55.5
2017-09-12T07:45:32.639Z,55.8
2017-09-12T07:46:32.181Z,55.6
2017-09-12T07:48:30.486Z,55.9
2017-09-12T07:49:29.772Z,55.8
2017-09-12T07:50:28.691Z,55.6
2017-09-12T07:51:28.226Z,55.5
2017-09-12T07:52:27.268Z,55.5
2017-09-12T07:54:26.069Z,54.8
2017-09-12T07:55:24.734Z,54.5
2017-09-12T07:56:24.527Z,54.5
2017-09-12T07:57:23.310Z,54.5
2017-09-12T07:58:22.598Z,55
2017-09-12T07:59:22.016Z,55
2017-09-12T08:00:21.302Z,54.3
2017-09-12T08:01:20.464Z,54.3
2017-09-12T08:02:19.637Z,54.1
2017-09-12T08:03:18.800Z,54.3
2017-09-12T08:04:18.349Z,53.8
2017-09-12T08:05:17.767Z,53.9
2017-09-12T08:06:16.808Z,54.1
2017-09-12T08:07:16.101Z,54.2
2017-09-12T08:10:13.526Z,54
2017-09-12T08:11:12.806Z,54
2017-09-12T08:12:11.975Z,54.2
2017-09-12T08:13:11.680Z,54.5
2017-09-12T08:14:10.717Z,54.5
2017-09-12T08:15:10.013Z,54.5
2017-09-12T08:16:09.432Z,54.7
2017-09-12T08:17:08.472Z,54.7
2017-09-12T08:18:07.896Z,54.5
2017-09-12T08:19:07.061Z,54.6
2017-09-12T08:20:06.347Z,54.1
2017-09-12T08:22:04.779Z,53.7
2017-09-12T08:23:04.068Z,53.5
2017-09-12T08:24:03.478Z,54
2017-09-12T08:25:02.517Z,53.5
2017-09-12T08:26:01.809Z,53.6
2017-09-12T08:27:00.975Z,53.4
2017-09-12T08:28:00.392Z,53.2
2017-09-12T08:28:59.932Z,54
2017-09-12T08:29:58.980Z,54.5
2017-09-12T08:30:57.794Z,54.4
2017-09-12T08:31:28.398Z,54.4
2017-09-12T08:32:56.874Z,54.2
2017-09-12T08:33:56.047Z,52.8
2017-09-12T08:34:55.101Z,53.1
2017-09-12T08:35:54.646Z,53.5
2017-09-12T08:36:53.799Z,53.2
2017-09-12T08:37:52.714Z,53.3
2017-09-12T08:38:52.128Z,53.2
2017-09-12T08:39:51.297Z,52.2
2017-09-12T08:40:50.591Z,51.8
2017-09-12T08:41:50.007Z,52
2017-09-12T08:42:49.305Z,51.8
2017-09-12T08:43:48.722Z,52
2017-09-12T08:44:47.906Z,51.3
2017-09-12T08:45:47.191Z,51.7
2017-09-12T08:46:46.478Z,52.1
2017-09-12T08:47:46.027Z,51.8
2017-09-12T08:48:45.065Z,51.8
2017-09-12T08:49:43.972Z,51.8
2017-09-12T08:50:43.262Z,51.8
2017-09-12T08:51:42.544Z,51.9
2017-09-12T08:52:41.709Z,51.8
2017-09-12T08:53:40.996Z,51.8
2017-09-12T08:54:40.539Z,51.7
2017-09-12T08:55:39.579Z,51.2
2017-09-12T08:56:39.124Z,50.4
2017-09-12T08:57:38.412Z,50.2
2017-09-12T08:58:37.575Z,50.6
2017-09-12T08:59:36.613Z,50.4
2017-09-12T09:00:36.030Z,50.3
2017-09-12T09:02:34.835Z,49.9
2017-09-12T09:03:33.874Z,50.1
2017-09-12T09:04:33.167Z,50.4
2017-09-12T09:05:32.329Z,50.8
2017-09-12T09:06:31.739Z,50.2
2017-09-12T09:07:31.160Z,50.2
2017-09-12T09:08:30.448Z,50.2
2017-09-12T09:09:29.614Z,50.2
2017-09-12T09:10:28.902Z,50.6
2017-09-12T09:11:28.441Z,50.7
2017-09-12T09:12:27.234Z,50.8
2017-09-12T09:13:26.769Z,51.1
2017-09-12T09:14:26.181Z,50.9
2017-09-12T09:15:25.346Z,50.7
2017-09-12T09:16:24.381Z,50.9
2017-09-12T09:17:23.928Z,50.8
2017-09-12T09:18:23.461Z,50.8
2017-09-12T09:19:22.371Z,50.6
2017-09-12T09:20:21.914Z,50.9
2017-09-12T09:21:21.204Z,50.9
2017-09-12T09:22:20.244Z,50.9
2017-09-12T09:23:19.654Z,51.2
2017-09-12T09:25:18.588Z,51.5
2017-09-12T09:26:17.501Z,51.5
2017-09-12T09:27:16.782Z,51.8
2017-09-12T09:30:14.345Z,52.2
2017-09-12T09:32:13.532Z,51.8
2017-09-12T09:33:12.697Z,52
2017-09-12T09:34:11.992Z,52.2
2017-09-12T09:35:10.659Z,52.4
2017-09-12T09:36:10.345Z,52.6
2017-09-12T09:37:09.764Z,52.8
2017-09-12T09:38:08.924Z,53.1
2017-09-12T09:39:08.216Z,53.1
2017-09-12T09:40:07.512Z,53.1
2017-09-12T09:41:06.676Z,53.3
2017-09-12T09:42:06.343Z,53.1
2017-09-12T09:43:05.392Z,53.1
2017-09-12T09:45:04.091Z,53.1
2017-09-12T09:46:03.253Z,53.3
2017-09-12T09:47:02.543Z,53.7
2017-09-12T09:48:01.874Z,54.2
2017-09-12T09:49:01.165Z,54.1
2017-09-12T09:50:00.581Z,54.1
2017-09-12T09:51:58.751Z,53.3
2017-09-12T09:52:57.920Z,53.7
2017-09-12T09:53:57.836Z,53.4
2017-09-12T09:55:56.141Z,52.9
2017-09-12T09:57:54.822Z,52.6
2017-09-12T09:58:24.919Z,52.6
2017-09-12T09:58:55.278Z,52.4
2017-09-12T09:59:53.574Z,52.4
2017-09-12T10:00:52.737Z,53
2017-09-12T10:02:51.545Z,52.9
2017-09-12T10:03:50.587Z,53
2017-09-12T10:04:49.879Z,53.2
2017-09-12T10:05:48.790Z,53.2
2017-09-12T10:06:48.592Z,53
2017-09-12T10:07:47.508Z,53.1
2017-09-12T10:08:46.802Z,52.7
2017-09-12T10:09:46.340Z,52.9
2017-09-12T10:10:45.531Z,52.8
2017-09-12T10:12:44.208Z,52.1
2017-09-12T10:13:43.627Z,51.8
2017-09-12T10:14:42.666Z,50.8
2017-09-12T10:15:41.959Z,51.4
2017-09-12T10:16:41.378Z,51.6
2017-09-12T10:17:40.294Z,51.6
2017-09-12T10:18:39.709Z,51.7
2017-09-12T10:19:38.996Z,51.7
2017-09-12T10:20:38.538Z,51.8
2017-09-12T10:21:37.955Z,52.3
2017-09-12T10:22:36.992Z,52.2
2017-09-12T10:23:36.281Z,52.2
2017-09-12T10:24:35.941Z,52.3
2017-09-12T10:25:34.734Z,51.7
2017-09-12T10:26:34.524Z,51.4
2017-09-12T10:27:33.689Z,50.9
2017-09-12T10:28:32.999Z,50.9
2017-09-12T10:29:32.670Z,50.8
2017-09-12T10:30:32.028Z,50.9
2017-09-12T10:32:30.318Z,51.1
2017-09-12T10:33:29.729Z,51
2017-09-12T10:34:28.768Z,50.6
2017-09-12T10:35:28.178Z,50.8
2017-09-12T10:36:27.470Z,50.9
2017-09-12T10:37:26.886Z,50.9
2017-09-12T10:38:26.051Z,50.9
2017-09-12T10:39:25.601Z,50.4
2017-09-12T10:40:24.518Z,50.3
2017-09-12T10:41:23.683Z,50.4
2017-09-12T10:42:23.094Z,49.4
2017-09-12T10:43:22.257Z,49.4
2017-09-12T10:44:21.799Z,49.6
2017-09-12T10:45:21.211Z,49.7
2017-09-12T10:46:20.384Z,49.6
2017-09-12T10:47:19.680Z,49.8
2017-09-12T10:48:19.102Z,49.9
2017-09-12T10:49:18.523Z,49.6
2017-09-12T10:49:48.868Z,49.6
2017-09-12T10:50:19.102Z,50.1
2017-09-12T10:50:49.335Z,50.1
2017-09-12T10:51:19.688Z,49.7
2017-09-12T10:51:49.789Z,49.7
2017-09-12T10:53:15.768Z,49.9
2017-09-12T10:54:14.806Z,50.3
2017-09-12T10:55:14.094Z,50.3
2017-09-12T10:56:13.260Z,50.3
2017-09-12T10:57:13.047Z,49.9
2017-09-12T10:58:12.217Z,49.9
2017-09-12T10:59:11.267Z,50.1
2017-09-12T11:00:10.952Z,50.3
2017-09-12T11:01:09.868Z,50.2
2017-09-12T11:02:09.547Z,50.4
2017-09-12T11:03:08.963Z,50.8
2017-09-12T11:04:08.127Z,50.7
2017-09-12T11:05:07.539Z,50.4
2017-09-12T11:06:06.957Z,50.7
2017-09-12T11:07:06.247Z,50.8
2017-09-12T11:09:04.801Z,50.9
2017-09-12T11:10:03.966Z,50.9
2017-09-12T11:11:03.385Z,51.4
2017-09-12T11:12:02.676Z,51.4
2017-09-12T11:13:01.717Z,51.6
2017-09-12T11:14:01.138Z,51.6
2017-09-12T11:15:00.562Z,51.3
2017-09-12T11:15:59.976Z,50.7
2017-09-12T11:16:59.265Z,50.5
2017-09-12T11:17:58.056Z,50.9
2017-09-12T11:18:58.102Z,50.4
2017-09-12T11:19:56.767Z,50.2
2017-09-12T11:20:56.439Z,50.6
2017-09-12T11:21:55.480Z,50.7
2017-09-12T11:22:54.800Z,50.8
2017-09-12T11:23:54.086Z,50.9
2017-09-12T11:24:53.627Z,50.8
2017-09-12T11:25:52.787Z,50.9
2017-09-12T11:26:52.200Z,51.2
2017-09-12T11:27:51.617Z,51.2
2017-09-12T11:28:51.063Z,50.9
2017-09-12T11:29:50.229Z,51.2
2017-09-12T11:30:49.646Z,51.2
2017-09-12T11:31:49.195Z,51.2
2017-09-12T11:32:19.423Z,51.2
2017-09-12T11:32:49.518Z,51.2
2017-09-12T11:33:47.172Z,51.5
2017-09-12T11:34:46.838Z,51.6
2017-09-12T11:35:45.879Z,51.5
2017-09-12T11:36:45.422Z,51.7
2017-09-12T11:37:44.579Z,51.2
2017-09-12T11:38:43.991Z,51.3
2017-09-12T11:39:43.275Z,51.2
2017-09-12T11:40:42.567Z,51.1
2017-09-12T11:41:42.112Z,51.8
2017-09-12T11:42:41.275Z,51.7
2017-09-12T11:43:40.570Z,52
2017-09-12T11:44:39.858Z,52
2017-09-12T11:45:38.774Z,51.7
2017-09-12T11:46:38.313Z,52.1
2017-09-12T11:47:37.734Z,52.1
2017-09-12T11:48:08.467Z,52.1
2017-09-12T11:50:35.839Z,52.1
2017-09-12T11:51:35.125Z,52.6
2017-09-12T11:52:34.412Z,52.3
2017-09-12T11:53:33.454Z,52.5
2017-09-12T11:54:33.118Z,52.3
2017-09-12T11:55:32.028Z,52.6
2017-09-12T11:56:31.447Z,52.9
2017-09-12T11:57:30.741Z,52.6
2017-09-12T11:58:30.033Z,52.8
2017-09-12T11:59:29.570Z,52.7
2017-09-12T12:00:29.103Z,52.7
2017-09-12T12:01:28.140Z,52.8
2017-09-12T12:02:27.177Z,52.3
2017-09-12T12:03:26.599Z,52.3
2017-09-12T12:04:26.014Z,52.8
2017-09-12T12:05:25.174Z,52.8
2017-09-12T12:06:24.471Z,52.7
2017-09-12T12:07:23.881Z,51.9
2017-09-12T12:08:23.172Z,51.9
2017-09-12T12:09:22.599Z,52.2
2017-09-12T12:10:22.139Z,52.6
2017-09-12T12:11:21.430Z,52.6
2017-09-12T12:12:20.480Z,52.8
2017-09-12T12:13:19.895Z,52.7
2017-09-12T12:14:19.433Z,53
2017-09-12T12:15:18.605Z,53.6
2017-09-12T12:16:18.053Z,55
2017-09-12T12:17:16.852Z,55.8
2017-09-12T12:19:15.405Z,55.6
2017-09-12T12:20:14.821Z,55.9
2017-09-12T12:21:13.986Z,55.5
2017-09-12T12:22:13.902Z,54.9
2017-09-12T12:23:12.936Z,55.5
2017-09-12T12:24:12.227Z,55.5
2017-09-12T12:25:11.519Z,55
2017-09-12T12:26:10.686Z,55
2017-09-12T12:27:09.972Z,55
2017-09-12T12:28:09.317Z,55.4
2017-09-12T12:29:08.477Z,55
2017-09-12T12:30:07.772Z,55.2
2017-09-12T12:31:07.063Z,55.2
2017-09-12T12:32:06.981Z,55.6
2017-09-12T12:34:05.282Z,56.5
2017-09-12T12:35:04.574Z,56.9
2017-09-12T12:36:03.612Z,56.2
2017-09-12T12:38:02.411Z,56.2
2017-09-12T12:39:02.083Z,56.3
2017-09-12T12:41:00.135Z,55.7
2017-09-12T12:41:30.749Z,55.7
2017-09-12T12:42:01.350Z,55.3
2017-09-12T12:42:31.448Z,55.3
2017-09-12T12:43:01.540Z,55
2017-09-12T12:43:58.315Z,55
2017-09-12T12:44:57.603Z,55
2017-09-12T12:45:57.014Z,53.9
2017-09-12T12:46:56.189Z,53.8
2017-09-12T12:47:55.363Z,53.2
2017-09-12T12:48:54.772Z,53.3
2017-09-12T12:49:54.185Z,53.4
2017-09-12T12:50:53.473Z,53.2
2017-09-12T12:51:52.761Z,52.8
2017-09-12T12:52:51.921Z,52
2017-09-12T12:53:51.333Z,52
2017-09-12T12:54:50.628Z,52
2017-09-12T12:55:50.054Z,52.1
2017-09-12T12:56:49.593Z,52
2017-09-12T12:57:48.515Z,52.3
2017-09-12T12:58:48.058Z,52.6
2017-09-12T12:59:47.216Z,52.7
2017-09-12T13:00:46.376Z,53
2017-09-12T13:01:45.671Z,53.4
2017-09-12T13:02:45.462Z,53.4
2017-09-12T13:04:43.882Z,55.6
2017-09-12T13:05:43.043Z,57.2
2017-09-12T13:06:42.840Z,59.1
2017-09-12T13:07:41.629Z,58.5
2017-09-12T13:08:40.664Z,59.5
2017-09-12T13:09:40.326Z,60
2017-09-12T13:10:39.493Z,65
2017-09-12T13:11:39.028Z,66.7
2017-09-12T13:12:09.507Z,66.7
2017-09-12T13:12:40.113Z,66.7
2017-09-12T13:13:10.337Z,66.7
2017-09-12T13:14:36.677Z,68.5
2017-09-12T13:15:36.607Z,69.7
2017-09-12T13:17:34.901Z,70.6
2017-09-12T13:18:33.942Z,69.1
2017-09-12T13:19:33.240Z,69.5
2017-09-12T13:20:32.532Z,70.5
2017-09-12T13:21:32.081Z,70.5
2017-09-12T13:22:31.618Z,71.2
2017-09-12T13:23:30.776Z,72
2017-09-12T13:24:30.193Z,71.8
2017-09-12T13:25:29.481Z,71.5
2017-09-12T13:26:29.022Z,71.8
2017-09-12T13:27:27.932Z,71.6
2017-09-12T13:29:26.734Z,70.8
2017-09-12T13:30:25.646Z,71
2017-09-12T13:31:25.063Z,71.9
2017-09-12T13:32:24.477Z,71.9
2017-09-12T13:33:23.263Z,70.6
2017-09-12T13:34:22.933Z,70.6
2017-09-12T13:35:22.352Z,70.3
2017-09-12T13:36:21.642Z,71.2
2017-09-12T13:37:21.178Z,70.9
2017-09-12T13:38:20.098Z,70.7
2017-09-12T13:39:19.426Z,70.7
2017-09-12T13:40:18.712Z,70.7
2017-09-12T13:41:18.253Z,70.8
2017-09-12T13:42:17.419Z,70.2
2017-09-12T13:43:16.963Z,70.2
2017-09-12T13:44:16.249Z,67.9
2017-09-12T13:45:15.281Z,67.5